Time;durP1;ratioP1;P1;durP2;ratioP2;P2;SDS_P1;SDS_P2;PMS_P1;PMS_P2;Temp;Humidity;BMP_temperature;BMP_pressure;BME280_temperature;BME280_humidity;BME280_pressure;Samples;Min_cycle;Max_cycle;Signal;HPM_P1;HPM_P2
2024/02/03 00:02:02;;;;;;;16.08;8.48;;;;;;;10.62;100.00;102836.25;5285200;27;20092;-74
2024/02/03 00:04:33;;;;;;;16.63;8.65;;;;;;;10.62;100.00;102822.81;5285133;28;20473;-74
2024/02/03 00:07:03;;;;;;;15.02;8.48;;;;;;;10.62;100.00;102822.81;5285122;28;20106;-74
2024/02/03 00:09:34;;;;;;;16.23;8.63;;;;;;;10.61;100.00;102818.44;5287239;27;20020;-74
2024/02/03 00:12:07;;;;;;;14.27;8.32;;;;;;;10.60;100.00;102816.75;5288523;27;20023;-76
2024/02/03 00:14:37;;;;;;;18.27;8.35;;;;;;;10.66;100.00;102817.25;5286904;27;20529;-74
2024/02/03 00:17:08;;;;;;;17.08;8.20;;;;;;;10.69;100.00;102811.59;5289201;27;20024;-74
2024/02/03 00:19:39;;;;;;;14.32;9.07;;;;;;;10.69;100.00;102811.59;5288327;28;20450;-77
2024/02/03 00:22:11;;;;;;;17.83;8.45;;;;;;;10.72;100.00;102808.69;5288582;27;20037;-74
2024/02/03 00:24:41;;;;;;;14.98;8.48;;;;;;;10.71;100.00;102810.53;5288669;27;20035;-74
2024/02/03 00:27:12;;;;;;;16.30;7.97;;;;;;;10.70;100.00;102813.34;5288339;27;20526;-74
2024/02/03 00:29:43;;;;;;;13.85;8.05;;;;;;;10.75;100.00;102809.31;5285435;27;20469;-75
2024/02/03 00:32:13;;;;;;;18.63;8.60;;;;;;;10.75;100.00;102808.47;5293963;27;20032;-78
2024/02/03 00:34:46;;;;;;;16.73;9.13;;;;;;;10.84;100.00;102808.63;5289808;27;21142;-74
2024/02/03 00:37:17;;;;;;;16.92;8.32;;;;;;;10.75;100.00;102797.75;5290061;27;20519;-76
2024/02/03 00:39:47;;;;;;;18.27;8.38;;;;;;;10.72;100.00;102804.19;5287166;27;20024;-78
2024/02/03 00:42:18;;;;;;;18.10;8.57;;;;;;;10.74;100.00;102810.28;5287282;27;20040;-74
2024/02/03 00:44:49;;;;;;;17.48;8.23;;;;;;;10.75;100.00;102811.16;5288395;27;20055;-78
2024/02/03 00:47:19;;;;;;;16.17;8.02;;;;;;;10.75;100.00;102800.41;5287497;28;20051;-74
2024/02/03 00:49:50;;;;;;;16.30;8.73;;;;;;;10.71;100.00;102805.16;5287089;27;20080;-74
2024/02/03 00:52:20;;;;;;;18.35;8.82;;;;;;;10.73;100.00;102807.72;5289402;27;20435;-74
2024/02/03 00:54:51;;;;;;;14.10;8.43;;;;;;;10.75;100.00;102803.97;5288405;27;20055;-75
2024/02/03 00:57:21;;;;;;;15.52;8.10;;;;;;;10.74;100.00;102806.75;5285382;28;20035;-75
2024/02/03 00:59:52;;;;;;;16.52;9.15;;;;;;;10.72;100.00;102806.03;5283716;28;20024;-74
2024/02/03 01:02:23;;;;;;;14.98;8.23;;;;;;;10.72;100.00;102814.06;5292117;27;20035;-74
2024/02/03 01:04:54;;;;;;;14.65;8.77;;;;;;;10.72;100.00;102814.06;5284943;27;20026;-75
2024/02/03 01:07:24;;;;;;;17.48;9.07;;;;;;;10.70;100.00;102808.84;5293299;27;20032;-73
2024/02/03 01:09:55;;;;;;;17.65;9.23;;;;;;;10.69;100.00;102801.72;5286437;27;20023;-74
2024/02/03 01:12:25;;;;;;;22.65;10.60;;;;;;;10.66;100.00;102806.50;5280422;28;20045;-75
2024/02/03 01:14:56;;;;;;;17.83;8.68;;;;;;;10.69;100.00;102808.94;5287544;28;20036;-74
2024/02/03 01:17:26;;;;;;;15.63;8.90;;;;;;;10.70;100.00;102805.28;5289297;27;20039;-74
2024/02/03 01:19:57;;;;;;;17.15;8.88;;;;;;;10.62;100.00;102797.81;5286190;28;20068;-75
2024/02/03 01:22:27;;;;;;;16.20;9.07;;;;;;;10.62;100.00;102787.94;5289325;27;20023;-75
2024/02/03 01:24:58;;;;;;;19.02;9.48;;;;;;;10.61;100.00;102782.69;5286916;28;20055;-74
2024/02/03 01:27:29;;;;;;;19.73;9.10;;;;;;;10.68;100.00;102786.59;5286052;28;20035;-75
2024/02/03 01:29:59;;;;;;;20.23;9.07;;;;;;;10.67;100.00;102787.59;5288941;27;20030;-74
2024/02/03 01:32:30;;;;;;;16.55;9.65;;;;;;;10.65;100.00;102796.75;5286348;27;20020;-75
2024/02/03 01:35:00;;;;;;;14.70;8.70;;;;;;;10.66;100.00;102799.31;5286892;28;20024;-75
2024/02/03 01:37:31;;;;;;;19.35;10.02;;;;;;;10.69;100.00;102790.13;5286201;27;20023;-74
2024/02/03 01:40:02;;;;;;;20.00;10.07;;;;;;;10.69;100.00;102795.50;5286208;28;20442;-75
2024/02/03 01:42:33;;;;;;;19.55;9.60;;;;;;;10.65;100.00;102788.69;5288292;27;20054;-76
2024/02/03 01:45:04;;;;;;;19.13;8.90;;;;;;;10.63;100.00;102783.41;5286988;27;20600;-74
2024/02/03 01:47:35;;;;;;;17.75;9.07;;;;;;;10.59;100.00;102793.56;5286300;28;20455;-74
2024/02/03 01:50:07;;;;;;;23.08;9.48;;;;;;;10.59;100.00;102792.69;5286327;28;20036;-74
2024/02/03 01:52:39;;;;;;;21.67;9.55;;;;;;;10.57;100.00;102798.19;5285965;28;20180;-74
2024/02/03 01:55:09;;;;;;;20.52;9.43;;;;;;;10.59;100.00;102790.88;5289058;27;20027;-74
2024/02/03 01:57:44;;;;;;;22.10;10.15;;;;;;;10.59;100.00;102784.63;5284529;28;20023;-74
2024/02/03 02:00:15;;;;;;;19.17;8.65;;;;;;;10.63;100.00;102794.16;5288074;27;20059;-75
2024/02/03 02:02:46;;;;;;;17.65;8.45;;;;;;;10.66;100.00;102798.44;5290433;27;20020;-74
2024/02/03 02:05:16;;;;;;;21.55;10.05;;;;;;;10.65;100.00;102797.59;5287546;27;20026;-75
2024/02/03 02:07:47;;;;;;;14.63;8.18;;;;;;;10.70;100.00;102789.19;5290007;27;20039;-74
2024/02/03 02:10:18;;;;;;;24.92;9.15;;;;;;;10.65;100.00;102778.81;5290948;27;20055;-74
2024/02/03 02:12:48;;;;;;;17.05;8.85;;;;;;;10.72;100.00;102771.97;5291651;27;20028;-74
2024/02/03 02:15:19;;;;;;;17.45;8.48;;;;;;;10.75;100.00;102770.88;5291362;27;20023;-74
2024/02/03 02:17:57;;;;;;;23.55;8.38;;;;;;;10.69;100.00;102760.59;5279993;27;20366;-74
2024/02/03 02:20:27;;;;;;;15.13;8.18;;;;;;;10.72;100.00;102763.06;5290102;27;20106;-74
2024/02/03 02:22:58;;;;;;;18.85;9.23;;;;;;;10.72;100.00;102763.06;5278845;27;20174;-74
2024/02/03 02:25:29;;;;;;;14.80;8.73;;;;;;;10.74;100.00;102771.84;5288938;27;20103;-74
2024/02/03 02:27:59;;;;;;;19.17;9.15;;;;;;;10.72;100.00;102769.28;5289701;27;20043;-74
2024/02/03 02:30:30;;;;;;;23.00;10.02;;;;;;;10.73;100.00;102768.31;5286237;27;20023;-74
2024/02/03 02:33:01;;;;;;;21.45;10.57;;;;;;;10.78;100.00;102763.44;5282549;27;20023;-74
2024/02/03 02:35:32;;;;;;;23.05;11.48;;;;;;;10.77;100.00;102756.34;5283915;27;20042;-74
2024/02/03 02:38:03;;;;;;;25.85;11.65;;;;;;;10.80;100.00;102749.91;5287386;27;20035;-74
2024/02/03 02:40:33;;;;;;;24.00;11.48;;;;;;;10.81;100.00;102744.41;5281834;27;20019;-74
2024/02/03 02:43:05;;;;;;;21.48;11.05;;;;;;;10.80;100.00;102739.16;5276415;27;20027;-75
2024/02/03 02:45:36;;;;;;;24.55;11.10;;;;;;;10.82;100.00;102740.75;5288081;27;20065;-75
2024/02/03 02:48:07;;;;;;;15.50;9.65;;;;;;;10.79;100.00;102734.75;5284755;28;20496;-75
2024/02/03 02:50:38;;;;;;;18.02;8.55;;;;;;;10.76;100.00;102743.91;5282407;27;20030;-75
2024/02/03 02:53:08;;;;;;;15.93;8.85;;;;;;;10.82;100.00;102731.81;5288922;27;20031;-75
2024/02/03 02:55:43;;;;;;;18.83;8.38;;;;;;;10.82;100.00;102735.38;5285871;27;20024;-75
2024/02/03 02:58:14;;;;;;;19.05;8.38;;;;;;;10.83;100.00;102737.06;5288795;27;20476;-75
2024/02/03 03:00:44;;;;;;;17.25;7.05;;;;;;;10.89;100.00;102727.66;5280963;27;21476;-75
2024/02/03 03:03:15;;;;;;;18.42;7.35;;;;;;;10.87;100.00;102719.75;5285863;28;20385;-75
2024/02/03 03:05:47;;;;;;;15.25;7.70;;;;;;;10.86;100.00;102719.88;5288724;27;20023;-75
2024/02/03 03:08:18;;;;;;;20.50;7.97;;;;;;;10.84;100.00;102698.53;5287057;27;20392;-75
2024/02/03 03:10:48;;;;;;;20.85;8.10;;;;;;;10.88;100.00;102707.16;5287918;27;20034;-75
2024/02/03 03:13:19;;;;;;;15.10;8.02;;;;;;;10.90;100.00;102707.91;5288303;27;20633;-75
2024/02/03 03:15:49;;;;;;;20.67;7.38;;;;;;;10.93;100.00;102713.03;5287340;28;20026;-75
2024/02/03 03:18:20;;;;;;;18.17;7.85;;;;;;;10.94;100.00;102716.56;5286119;27;20028;-75
2024/02/03 03:20:51;;;;;;;15.20;7.80;;;;;;;10.94;100.00;102719.25;5283295;27;20380;-75
2024/02/03 03:23:21;;;;;;;19.48;7.72;;;;;;;10.93;100.00;102712.16;5287822;27;20641;-75
2024/02/03 03:25:59;;;;;;;18.67;8.35;;;;;;;10.95;100.00;102716.47;5287024;28;20008;-75
2024/02/03 03:28:30;;;;;;;17.67;8.15;;;;;;;10.96;100.00;102709.25;5285732;27;20407;-75
2024/02/03 03:31:00;;;;;;;21.60;8.23;;;;;;;10.99;100.00;102708.97;5286945;28;20027;-75
2024/02/03 03:33:31;;;;;;;17.08;7.90;;;;;;;10.98;100.00;102712.66;5287152;28;20024;-75
2024/02/03 03:36:02;;;;;;;16.25;7.43;;;;;;;11.00;100.00;102713.41;5286986;27;20112;-75
2024/02/03 03:38:34;;;;;;;16.60;7.78;;;;;;;10.97;100.00;102708.25;5287088;27;20038;-76
2024/02/03 03:41:05;;;;;;;15.38;7.65;;;;;;;10.98;100.00;102707.28;5284260;28;20028;-75
2024/02/03 03:43:36;;;;;;;26.27;8.52;;;;;;;11.00;100.00;102710.72;5287105;27;20038;-75
2024/02/03 03:46:08;;;;;;;15.98;8.32;;;;;;;10.94;100.00;102709.34;5287243;27;20380;-75
2024/02/03 03:48:38;;;;;;;13.27;7.13;;;;;;;10.95;100.00;102708.41;5285761;28;20040;-75
2024/02/03 03:51:09;;;;;;;18.60;7.95;;;;;;;11.01;100.00;102710.59;5285119;28;20027;-75
2024/02/03 03:53:39;;;;;;;14.80;7.60;;;;;;;10.96;100.00;102704.72;5285866;28;20027;-75
2024/02/03 03:56:10;;;;;;;18.60;7.50;;;;;;;10.99;100.00;102712.53;5287995;28;20023;-75
2024/02/03 03:58:41;;;;;;;19.42;7.45;;;;;;;10.93;100.00;102721.06;5284174;28;20039;-75
2024/02/03 04:01:11;;;;;;;18.92;8.77;;;;;;;10.91;100.00;102715.00;5286173;28;20031;-75
2024/02/03 04:03:42;;;;;;;15.00;7.78;;;;;;;10.93;100.00;102720.22;5286165;28;20027;-75
2024/02/03 04:06:12;;;;;;;19.27;8.23;;;;;;;10.95;100.00;102721.81;5286459;28;20026;-75
2024/02/03 04:08:43;;;;;;;17.58;7.50;;;;;;;10.98;100.00;102718.03;5285095;28;20020;-75
2024/02/03 04:11:13;;;;;;;16.45;8.43;;;;;;;10.95;100.00;102710.22;5283606;28;20054;-75
2024/02/03 04:13:44;;;;;;;15.95;8.18;;;;;;;10.96;100.00;102711.94;5286875;28;20015;-75
2024/02/03 04:16:15;;;;;;;16.65;8.82;;;;;;;10.94;100.00;102721.94;5285132;28;20027;-75
2024/02/03 04:18:45;;;;;;;18.08;8.63;;;;;;;10.95;100.00;102721.81;5283380;28;20020;-75
2024/02/03 04:21:17;;;;;;;15.60;7.95;;;;;;;10.98;100.00;102723.41;5274734;28;20032;-75
2024/02/03 04:23:47;;;;;;;16.15;8.25;;;;;;;10.92;100.00;102722.06;5279585;28;20031;-75
2024/02/03 04:26:18;;;;;;;15.73;8.00;;;;;;;10.90;100.00;102721.34;5282928;28;20016;-75
2024/02/03 04:28:48;;;;;;;14.98;8.25;;;;;;;10.93;100.00;102725.59;5283974;28;20565;-75
2024/02/03 04:31:19;;;;;;;19.50;8.77;;;;;;;10.86;100.00;102730.63;5285496;27;20030;-75
2024/02/03 04:33:50;;;;;;;21.08;8.90;;;;;;;10.87;100.00;102730.47;5285955;27;20405;-75
2024/02/03 04:36:20;;;;;;;21.20;8.60;;;;;;;10.89;100.00;102733.03;5284208;27;20023;-75
2024/02/03 04:38:51;;;;;;;19.55;9.20;;;;;;;10.82;100.00;102727.31;5284790;28;20388;-75
2024/02/03 04:41:23;;;;;;;19.20;8.27;;;;;;;10.85;100.00;102723.53;5278560;28;20566;-75
2024/02/03 04:43:54;;;;;;;23.58;8.57;;;;;;;10.83;100.00;102720.97;5285641;28;20107;-76
2024/02/03 04:46:24;;;;;;;24.08;8.45;;;;;;;10.77;100.00;102712.53;5284525;28;20111;-75
2024/02/03 04:48:55;;;;;;;17.27;8.88;;;;;;;10.80;100.00;102712.31;5282756;28;20050;-75
2024/02/03 04:51:26;;;;;;;26.00;9.85;;;;;;;10.72;100.00;102702.16;5282353;28;20036;-75
2024/02/03 04:53:57;;;;;;;22.27;9.77;;;;;;;10.67;100.00;102703.53;5285368;28;20031;-75
2024/02/03 04:56:27;;;;;;;26.00;9.73;;;;;;;10.62;100.00;102699.38;5287812;28;20088;-75
2024/02/03 04:58:58;;;;;;;20.80;9.35;;;;;;;10.64;100.00;102691.19;5288568;27;20030;-75
2024/02/03 05:01:29;;;;;;;22.73;8.70;;;;;;;10.61;100.00;102691.44;5282736;27;20114;-75
2024/02/03 05:03:59;;;;;;;22.52;7.63;;;;;;;10.58;100.00;102686.31;5281760;27;20447;-75
2024/02/03 05:06:30;;;;;;;20.65;9.38;;;;;;;10.58;100.00;102689.84;5288861;27;20392;-76
2024/02/03 05:09:01;;;;;;;22.50;7.68;;;;;;;10.55;100.00;102683.88;5288572;27;20102;-75
2024/02/03 05:11:32;;;;;;;20.25;8.63;;;;;;;10.45;100.00;102686.44;5287729;28;20032;-75
2024/02/03 05:14:02;;;;;;;26.45;10.10;;;;;;;10.48;100.00;102678.13;5287634;27;20396;-75
2024/02/03 05:16:33;;;;;;;24.95;8.00;;;;;;;10.49;100.00;102678.97;5287757;28;20042;-75
2024/02/03 05:19:05;;;;;;;23.17;9.20;;;;;;;10.45;100.00;102678.38;5287313;28;20067;-76
2024/02/03 05:21:36;;;;;;;20.38;7.80;;;;;;;10.52;100.00;102684.13;5286162;28;20024;-75
2024/02/03 05:24:06;;;;;;;24.67;8.25;;;;;;;10.56;100.00;102686.44;5287361;28;20037;-75
2024/02/03 05:26:37;;;;;;;14.55;7.60;;;;;;;10.59;100.00;102690.69;5281286;27;20107;-75
2024/02/03 05:29:07;;;;;;;24.05;8.00;;;;;;;10.59;100.00;102694.25;5286910;28;20027;-75
2024/02/03 05:31:38;;;;;;;19.17;7.93;;;;;;;10.61;100.00;102691.44;5287096;28;20102;-75
2024/02/03 05:34:08;;;;;;;24.95;7.85;;;;;;;10.61;100.00;102692.28;5287759;28;20034;-75
2024/02/03 05:36:40;;;;;;;20.75;7.97;;;;;;;10.62;100.00;102696.69;5287121;28;20026;-75
2024/02/03 05:39:11;;;;;;;25.00;7.90;;;;;;;10.60;100.00;102689.75;5286453;28;20023;-75
2024/02/03 05:41:42;;;;;;;16.65;8.18;;;;;;;10.66;100.00;102683.88;5287117;28;20024;-75
2024/02/03 05:44:12;;;;;;;15.10;7.28;;;;;;;10.72;100.00;102694.13;5285429;28;20031;-76
2024/02/03 05:46:44;;;;;;;14.32;6.60;;;;;;;10.79;100.00;102698.03;5288051;27;20043;-75
2024/02/03 05:49:14;;;;;;;20.77;6.43;;;;;;;10.78;100.00;102695.47;5286900;27;20030;-76
2024/02/03 05:51:45;;;;;;;24.65;7.40;;;;;;;10.88;100.00;102688.38;5287720;27;20024;-75
2024/02/03 05:54:15;;;;;;;17.13;7.25;;;;;;;10.88;100.00;102691.91;5287217;28;20039;-75
2024/02/03 05:56:46;;;;;;;16.95;6.30;;;;;;;10.94;100.00;102678.97;5287158;27;20029;-75
2024/02/03 05:59:16;;;;;;;22.48;6.65;;;;;;;10.91;100.00;102680.09;5286319;28;20492;-75
2024/02/03 06:01:47;;;;;;;21.58;7.47;;;;;;;10.93;100.00;102679.94;5287167;27;20020;-75
2024/02/03 06:04:17;;;;;;;16.63;6.40;;;;;;;10.92;100.00;102679.09;5287756;27;20023;-75
2024/02/03 06:06:48;;;;;;;18.15;6.10;;;;;;;10.96;100.00;102682.41;5288039;27;20023;-75
2024/02/03 06:09:18;;;;;;;17.70;6.28;;;;;;;10.99;100.00;102684.81;5287018;27;20488;-75
2024/02/03 06:11:49;;;;;;;16.83;6.35;;;;;;;11.03;100.00;102686.28;5287905;27;20031;-75
2024/02/03 06:14:19;;;;;;;23.42;6.20;;;;;;;11.03;100.00;102676.38;5287126;27;20451;-75
2024/02/03 06:16:50;;;;;;;18.60;6.57;;;;;;;11.07;100.00;102677.84;5286730;27;20118;-75
2024/02/03 06:19:21;;;;;;;20.02;5.75;;;;;;;11.05;100.00;102677.13;5286460;27;20534;-75
2024/02/03 06:21:51;;;;;;;26.75;6.72;;;;;;;11.16;100.00;102681.63;5280859;27;20033;-75
2024/02/03 06:24:22;;;;;;;17.25;5.80;;;;;;;11.07;100.00;102677.84;5287027;28;20024;-75
2024/02/03 06:26:52;;;;;;;16.92;5.88;;;;;;;11.08;100.00;102670.66;5283051;27;20039;-75
2024/02/03 06:29:25;;;;;;;16.50;5.53;;;;;;;11.11;100.00;102671.25;5280724;27;20039;-75
2024/02/03 06:31:56;;;;;;;21.25;6.32;;;;;;;11.15;100.00;102669.19;5280248;28;20032;-75
2024/02/03 06:34:26;;;;;;;15.00;5.28;;;;;;;11.10;100.00;102666.03;5285602;27;20084;-75
2024/02/03 06:36:57;;;;;;;17.00;5.53;;;;;;;11.12;100.00;102664.06;5285509;27;20731;-75
2024/02/03 06:39:27;;;;;;;21.10;5.53;;;;;;;11.08;100.00;102659.91;5283536;27;20039;-75
2024/02/03 06:41:58;;;;;;;27.20;5.78;;;;;;;11.10;100.00;102656.13;5285070;27;20538;-75
2024/02/03 06:44:28;;;;;;;19.02;5.68;;;;;;;11.18;100.00;102665.38;5275739;27;20027;-75
2024/02/03 06:46:59;;;;;;;19.65;5.25;;;;;;;11.18;100.00;102671.59;5280172;28;20662;-75
2024/02/03 06:49:29;;;;;;;21.17;5.43;;;;;;;11.14;100.00;102675.50;5283153;27;20066;-75
2024/02/03 06:52:00;;;;;;;15.30;5.63;;;;;;;11.22;100.00;102678.44;5281216;27;20102;-76
2024/02/03 06:54:31;;;;;;;19.73;4.55;;;;;;;11.29;100.00;102676.94;5284565;27;20084;-75
2024/02/03 06:57:01;;;;;;;12.38;4.50;;;;;;;11.28;100.00;102680.59;5284035;28;20024;-75
2024/02/03 06:59:32;;;;;;;11.95;4.68;;;;;;;11.29;100.00;102681.47;5282682;28;20032;-75
2024/02/03 07:02:02;;;;;;;14.07;4.30;;;;;;;11.26;100.00;102679.03;5287175;27;20053;-75
2024/02/03 07:04:34;;;;;;;17.00;5.47;;;;;;;11.26;100.00;102684.41;5288535;27;20058;-75
2024/02/03 07:07:05;;;;;;;22.65;5.28;;;;;;;11.25;100.00;102683.56;5284367;28;20028;-75
2024/02/03 07:09:35;;;;;;;18.85;5.30;;;;;;;11.25;100.00;102685.41;5281723;27;20496;-75
2024/02/03 07:12:06;;;;;;;17.45;5.40;;;;;;;11.32;100.00;102691.97;5293470;27;20029;-75
2024/02/03 07:14:36;;;;;;;13.30;5.10;;;;;;;11.28;100.00;102688.66;5284406;27;20035;-75
2024/02/03 07:17:07;;;;;;;15.52;5.35;;;;;;;11.32;100.00;102698.19;5289241;27;20027;-75
2024/02/03 07:19:37;;;;;;;22.00;6.78;;;;;;;11.27;100.00;102691.50;5291930;27;20114;-76
2024/02/03 07:22:08;;;;;;;17.10;5.75;;;;;;;11.28;100.00;102696.72;5289942;27;20084;-75
2024/02/03 07:24:39;;;;;;;20.88;7.07;;;;;;;11.33;100.00;102701.72;5289666;27;20035;-76
2024/02/03 07:27:09;;;;;;;13.48;5.82;;;;;;;11.29;100.00;102697.56;5289749;27;20084;-76
2024/02/03 07:29:41;;;;;;;18.52;6.43;;;;;;;11.26;100.00;102709.44;5283880;27;20019;-75
2024/02/03 07:32:11;;;;;;;23.48;6.93;;;;;;;11.29;100.00;102702.94;5288769;27;20034;-75
2024/02/03 07:34:42;;;;;;;17.02;5.90;;;;;;;11.32;100.00;102708.94;5292898;27;20434;-75
2024/02/03 07:37:12;;;;;;;20.30;5.57;;;;;;;11.29;100.00;102705.63;5294399;27;20027;-75
2024/02/03 07:39:43;;;;;;;15.10;5.90;;;;;;;11.30;100.00;102705.53;5291752;27;20088;-75
2024/02/03 07:42:15;;;;;;;16.58;5.75;;;;;;;11.30;100.00;102713.59;5293124;27;20035;-76
2024/02/03 07:44:46;;;;;;;19.48;5.80;;;;;;;11.35;100.00;102723.97;5289734;28;20115;-75
2024/02/03 07:47:16;;;;;;;20.25;4.97;;;;;;;11.35;100.00;102723.97;5288525;27;20095;-75
2024/02/03 07:49:47;;;;;;;21.70;5.40;;;;;;;11.41;100.00;102726.16;5283467;28;20043;-75
2024/02/03 07:52:18;;;;;;;19.42;5.43;;;;;;;11.38;100.00;102729.06;5290206;28;20032;-75
2024/02/03 07:54:48;;;;;;;15.35;5.32;;;;;;;11.39;100.00;102725.41;5284123;28;20813;-75
2024/02/03 07:57:19;;;;;;;15.60;5.22;;;;;;;11.40;100.00;102735.19;5285175;28;20036;-75
2024/02/03 07:59:49;;;;;;;20.48;4.97;;;;;;;11.44;100.00;102730.41;5286661;28;20043;-75
2024/02/03 08:02:20;;;;;;;16.58;5.10;;;;;;;11.50;100.00;102722.72;5295100;27;20031;-75
2024/02/03 08:04:50;;;;;;;18.55;5.18;;;;;;;11.54;100.00;102724.13;5284230;28;20035;-75
2024/02/03 08:07:21;;;;;;;21.27;6.25;;;;;;;11.55;100.00;102733.09;5289679;28;20042;-75
2024/02/03 08:09:51;;;;;;;14.65;5.28;;;;;;;11.51;100.00;102735.16;5289915;27;20028;-74
2024/02/03 08:12:22;;;;;;;20.38;5.32;;;;;;;11.53;100.00;102735.88;5287437;28;20035;-75
2024/02/03 08:14:52;;;;;;;20.88;5.40;;;;;;;11.50;100.00;102738.84;5289971;27;20088;-75
2024/02/03 08:17:23;;;;;;;14.25;5.53;;;;;;;11.53;100.00;102737.72;5289714;28;20035;-75
2024/02/03 08:19:53;;;;;;;15.80;4.88;;;;;;;11.44;100.00;102739.31;5290352;28;20063;-74
2024/02/03 08:22:24;;;;;;;18.35;5.60;;;;;;;11.45;100.00;102735.66;5286765;28;20420;-76
2024/02/03 08:24:55;;;;;;;17.30;5.13;;;;;;;11.49;100.00;102747.00;5289640;28;20008;-75
2024/02/03 08:27:25;;;;;;;28.67;6.32;;;;;;;11.48;100.00;102748.84;5290240;28;20038;-74
2024/02/03 08:29:56;;;;;;;24.95;5.97;;;;;;;11.53;100.00;102743.94;5294957;27;20034;-75
2024/02/03 08:32:26;;;;;;;19.98;6.05;;;;;;;11.51;100.00;102750.44;5300454;27;20064;-75
2024/02/03 08:34:57;;;;;;;16.50;5.80;;;;;;;11.52;100.00;102758.38;5290039;27;20021;-74
2024/02/03 08:37:27;;;;;;;20.98;6.10;;;;;;;11.44;100.00;102754.59;5289923;27;20541;-74
2024/02/03 08:39:58;;;;;;;12.63;5.78;;;;;;;11.47;100.00;102754.34;5296473;27;20056;-74
2024/02/03 08:42:28;;;;;;;23.13;6.68;;;;;;;11.45;100.00;102753.63;5294321;27;20023;-75
2024/02/03 08:44:59;;;;;;;17.50;6.40;;;;;;;11.28;100.00;102749.63;5297119;27;20019;-75
2024/02/03 08:47:29;;;;;;;26.13;6.93;;;;;;;11.31;100.00;102747.53;5289057;27;20028;-75
2024/02/03 08:50:00;;;;;;;19.88;6.93;;;;;;;11.33;100.00;102756.31;5291349;27;20428;-74
2024/02/03 08:52:30;;;;;;;21.52;6.50;;;;;;;11.39;100.00;102758.50;5294144;27;20110;-77
2024/02/03 08:55:01;;;;;;;20.90;7.38;;;;;;;11.43;100.00;102750.19;5287760;28;20035;-75
2024/02/03 08:57:31;;;;;;;26.55;6.95;;;;;;;11.49;100.00;102749.69;5287810;28;20027;-78
2024/02/03 09:00:04;;;;;;;18.55;6.57;;;;;;;11.47;100.00;102751.66;5295684;27;20464;-75
2024/02/03 09:02:34;;;;;;;17.25;7.18;;;;;;;11.63;100.00;102749.41;5288150;27;20032;-75
2024/02/03 09:05:05;;;;;;;27.40;8.55;;;;;;;11.66;100.00;102739.25;5297477;27;20023;-75
2024/02/03 09:07:36;;;;;;;21.25;8.63;;;;;;;11.73;100.00;102744.97;5287313;27;20400;-75
2024/02/03 09:10:07;;;;;;;24.52;7.85;;;;;;;11.80;100.00;102756.94;5287314;28;20027;-78
2024/02/03 09:12:39;;;;;;;24.73;7.45;;;;;;;11.72;100.00;102753.19;5285932;27;20036;-74
2024/02/03 09:15:09;;;;;;;22.13;7.65;;;;;;;11.77;100.00;102748.28;5289158;27;20027;-75
2024/02/03 09:17:40;;;;;;;23.27;7.65;;;;;;;11.79;100.00;102757.06;5287127;28;20084;-75
2024/02/03 09:20:10;;;;;;;27.20;8.77;;;;;;;11.82;100.00;102762.22;5287119;28;20038;-74
2024/02/03 09:22:42;;;;;;;25.33;7.68;;;;;;;11.83;100.00;102769.31;5295978;27;20098;-75
2024/02/03 09:25:12;;;;;;;19.58;7.43;;;;;;;11.87;100.00;102774.28;5296308;27;20431;-74
2024/02/03 09:27:43;;;;;;;26.33;7.57;;;;;;;11.80;100.00;102772.22;5287174;28;20024;-77
2024/02/03 09:30:13;;;;;;;23.60;8.10;;;;;;;11.81;100.00;102774.78;5291429;27;20027;-77
2024/02/03 09:32:44;;;;;;;27.95;7.85;;;;;;;11.81;100.00;102774.78;5293260;27;20035;-75
2024/02/03 09:35:14;;;;;;;27.77;8.13;;;;;;;11.85;100.00;102783.50;5293023;27;20721;-74
2024/02/03 09:37:45;;;;;;;26.88;7.50;;;;;;;11.82;100.00;102784.59;5285612;28;20035;-78
2024/02/03 09:40:21;;;;;;;26.00;7.13;;;;;;;11.83;100.00;102788.97;5290785;27;20019;-74
2024/02/03 09:42:52;;;;;;;19.02;7.47;;;;;;;11.83;100.00;102786.28;5291330;27;20015;-76
2024/02/03 09:45:23;;;;;;;19.08;6.85;;;;;;;11.84;100.00;102784.44;5286400;28;20024;-74
2024/02/03 09:47:54;;;;;;;22.25;7.95;;;;;;;11.84;100.00;102793.38;5297329;27;20105;-75
2024/02/03 09:50:25;;;;;;;17.23;8.35;;;;;;;11.84;100.00;102792.50;5295264;27;20110;-74
2024/02/03 09:52:57;;;;;;;15.00;6.93;;;;;;;11.87;100.00;102790.44;5289114;27;20073;-77
2024/02/03 09:55:27;;;;;;;23.60;8.02;;;;;;;11.79;100.00;102792.00;5291667;27;20057;-75
2024/02/03 09:57:58;;;;;;;30.40;8.68;;;;;;;11.56;100.00;102792.09;5297293;27;20027;-74
2024/02/03 10:00:29;;;;;;;21.52;8.20;;;;;;;11.44;100.00;102806.50;5294831;27;20048;-74
2024/02/03 10:02:59;;;;;;;23.33;8.15;;;;;;;11.42;100.00;102797.72;5295895;27;20027;-75
2024/02/03 10:05:30;;;;;;;17.48;7.50;;;;;;;11.37;100.00;102805.31;5291456;27;20019;-75
2024/02/03 10:08:02;;;;;;;21.77;8.23;;;;;;;11.37;100.00;102806.16;5289025;27;20110;-76
2024/02/03 10:10:35;;;;;;;21.70;8.40;;;;;;;11.38;100.00;102817.75;5290398;27;20026;-75
2024/02/03 10:13:07;;;;;;;28.50;9.00;;;;;;;11.37;100.00;102814.22;5291272;27;20416;-74
2024/02/03 10:15:39;;;;;;;26.08;9.25;;;;;;;11.37;100.00;102816.06;5286478;27;20366;-75
2024/02/03 10:18:10;;;;;;;26.20;9.65;;;;;;;11.34;100.00;102806.38;5290571;27;20019;-75
2024/02/03 10:20:40;;;;;;;29.23;9.70;;;;;;;11.37;100.00;102808.00;5289968;27;20026;-75
2024/02/03 10:23:10;;;;;;;36.45;10.10;;;;;;;11.32;100.00;102800.28;5295528;27;20015;-75
2024/02/03 10:25:42;;;;;;;29.13;10.30;;;;;;;11.34;100.00;102795.63;5295969;27;20618;-74
2024/02/03 10:28:13;;;;;;;31.52;10.82;;;;;;;11.33;100.00;102802.00;5289319;27;20027;-75
2024/02/03 10:30:43;;;;;;;26.13;9.85;;;;;;;11.36;100.00;102790.16;5298119;27;20148;-75
2024/02/03 10:33:14;;;;;;;27.35;10.30;;;;;;;11.33;100.00;102790.41;5294029;27;20015;-76
2024/02/03 10:35:47;;;;;;;34.00;10.60;;;;;;;11.37;100.00;102790.03;5290375;27;20430;-75
2024/02/03 10:38:18;;;;;;;25.15;10.25;;;;;;;11.29;100.00;102783.56;5282782;28;20031;-78
2024/02/03 10:40:49;;;;;;;23.55;9.68;;;;;;;11.30;100.00;102786.16;5293324;27;20026;-75
2024/02/03 10:43:20;;;;;;;31.60;10.07;;;;;;;11.35;100.00;102777.72;5291471;27;20076;-74
2024/02/03 10:45:53;;;;;;;31.67;9.98;;;;;;;11.33;100.00;102760.84;5276499;27;20034;-76
2024/02/03 10:48:26;;;;;;;32.75;10.18;;;;;;;11.41;100.00;102774.53;5280054;28;20020;-76
2024/02/03 10:51:02;;;;;;;26.85;10.15;;;;;;;11.45;100.00;102767.06;5281812;28;20047;-75
2024/02/03 10:53:41;;;;;;;32.75;9.32;;;;;;;11.34;100.00;102762.53;5272696;28;20012;-77
2024/02/03 10:56:13;;;;;;;29.98;9.68;;;;;;;11.38;100.00;102767.53;5282648;27;20043;-75
2024/02/03 10:58:44;;;;;;;26.40;10.15;;;;;;;11.37;100.00;102751.56;5277836;28;20019;-74
2024/02/03 11:01:17;;;;;;;24.70;9.75;;;;;;;11.39;100.00;102761.19;5288492;27;20023;-77
2024/02/03 11:03:48;;;;;;;23.48;9.45;;;;;;;11.38;100.00;102758.63;5281154;28;20408;-75
2024/02/03 11:06:29;;;;;;;24.50;9.27;;;;;;;11.41;100.00;102761.94;5287241;27;20015;-75
2024/02/03 11:09:18;;;;;;;31.10;9.57;;;;;;;11.42;100.00;102757.41;5282446;28;20023;-75
2024/02/03 11:11:52;;;;;;;27.45;8.63;;;;;;;11.49;100.00;102761.28;5277838;28;20055;-76
2024/02/03 11:14:24;;;;;;;36.00;9.65;;;;;;;11.46;100.00;102748.13;5283907;27;20026;-75
2024/02/03 11:16:58;;;;;;;35.13;10.00;;;;;;;11.53;100.00;102737.72;5281887;28;20120;-76
2024/02/03 11:19:30;;;;;;;29.05;9.45;;;;;;;11.54;100.00;102739.41;5289639;27;20047;-75
2024/02/03 11:22:02;;;;;;;28.92;9.73;;;;;;;11.44;100.00;102717.81;5286573;27;20031;-77
2024/02/03 11:24:34;;;;;;;21.85;8.82;;;;;;;11.48;100.00;102710.34;5287085;27;20652;-75
2024/02/03 11:27:08;;;;;;;20.00;8.68;;;;;;;11.55;100.00;102720.50;5285917;27;20024;-74